sensor_id;sensor_type;location;lat;lon;timestamp;P1;durP1;ratioP1;P2;durP2;ratioP2
10031;SDS011;5056;44.272;19.892;2023-08-01T00:01:19;4.75;;;3.67;;
10031;SDS011;5056;44.272;19.892;2023-08-01T00:03:46;4.95;;;3.13;;
10031;SDS011;5056;44.272;19.892;2023-08-01T00:06:13;4.30;;;2.80;;
10031;SDS011;5056;44.272;19.892;2023-08-01T00:08:40;3.10;;;2.70;;
10031;SDS011;5056;44.272;19.892;2023-08-01T00:11:09;3.30;;;3.00;;
10031;SDS011;5056;44.272;19.892;2023-08-01T00:13:36;3.03;;;2.83;;
10031;SDS011;5056;44.272;19.892;2023-08-01T00:16:04;3.67;;;3.38;;
10031;SDS011;5056;44.272;19.892;2023-08-01T00:18:31;7.10;;;3.88;;
10031;SDS011;5056;44.272;19.892;2023-08-01T00:20:58;3.60;;;3.28;;
10031;SDS011;5056;44.272;19.892;2023-08-01T00:23:25;3.75;;;3.40;;
10031;SDS011;5056;44.272;19.892;2023-08-01T00:25:52;3.80;;;3.50;;
10031;SDS011;5056;44.272;19.892;2023-08-01T00:28:21;3.92;;;3.47;;
10031;SDS011;5056;44.272;19.892;2023-08-01T00:30:48;4.38;;;3.80;;
10031;SDS011;5056;44.272;19.892;2023-08-01T00:33:15;4.53;;;3.13;;
10031;SDS011;5056;44.272;19.892;2023-08-01T00:35:57;6.25;;;3.15;;
10031;SDS011;5056;44.272;19.892;2023-08-01T00:38:27;3.90;;;3.22;;
10031;SDS011;5056;44.272;19.892;2023-08-01T00:40:54;4.85;;;3.38;;
10031;SDS011;5056;44.272;19.892;2023-08-01T00:43:23;4.38;;;3.30;;
10031;SDS011;5056;44.272;19.892;2023-08-01T00:45:50;3.97;;;3.50;;
10031;SDS011;5056;44.272;19.892;2023-08-01T00:48:18;5.05;;;3.40;;
10031;SDS011;5056;44.272;19.892;2023-08-01T00:50:45;3.90;;;3.20;;
10031;SDS011;5056;44.272;19.892;2023-08-01T00:53:12;6.57;;;3.65;;
10031;SDS011;5056;44.272;19.892;2023-08-01T00:55:39;3.33;;;3.00;;
10031;SDS011;5056;44.272;19.892;2023-08-01T00:58:06;3.83;;;3.00;;
10031;SDS011;5056;44.272;19.892;2023-08-01T01:00:35;3.65;;;3.25;;
10031;SDS011;5056;44.272;19.892;2023-08-01T01:03:01;3.83;;;3.50;;
10031;SDS011;5056;44.272;19.892;2023-08-01T01:05:31;5.95;;;3.90;;
10031;SDS011;5056;44.272;19.892;2023-08-01T01:07:58;5.32;;;3.30;;
10031;SDS011;5056;44.272;19.892;2023-08-01T01:10:25;3.40;;;3.20;;
10031;SDS011;5056;44.272;19.892;2023-08-01T01:12:52;3.50;;;3.30;;
10031;SDS011;5056;44.272;19.892;2023-08-01T01:15:20;6.28;;;3.22;;
10031;SDS011;5056;44.272;19.892;2023-08-01T01:17:48;3.60;;;3.30;;
10031;SDS011;5056;44.272;19.892;2023-08-01T01:20:20;5.28;;;3.03;;
10031;SDS011;5056;44.272;19.892;2023-08-01T01:22:50;3.20;;;2.90;;
10031;SDS011;5056;44.272;19.892;2023-08-01T01:25:18;3.50;;;2.97;;
10031;SDS011;5056;44.272;19.892;2023-08-01T01:27:46;3.10;;;2.80;;
10031;SDS011;5056;44.272;19.892;2023-08-01T01:30:14;5.07;;;3.22;;
10031;SDS011;5056;44.272;19.892;2023-08-01T01:32:42;3.80;;;3.50;;
10031;SDS011;5056;44.272;19.892;2023-08-01T01:35:09;3.50;;;2.88;;
10031;SDS011;5056;44.272;19.892;2023-08-01T01:37:36;3.45;;;3.15;;
10031;SDS011;5056;44.272;19.892;2023-08-01T01:40:05;5.82;;;3.15;;
10031;SDS011;5056;44.272;19.892;2023-08-01T01:42:33;3.83;;;2.97;;
10031;SDS011;5056;44.272;19.892;2023-08-01T01:45:00;4.10;;;3.70;;
10031;SDS011;5056;44.272;19.892;2023-08-01T01:47:27;3.70;;;3.40;;
10031;SDS011;5056;44.272;19.892;2023-08-01T01:49:54;4.18;;;3.40;;
10031;SDS011;5056;44.272;19.892;2023-08-01T01:55:19;3.83;;;3.35;;
10031;SDS011;5056;44.272;19.892;2023-08-01T01:58:01;3.15;;;2.85;;
10031;SDS011;5056;44.272;19.892;2023-08-01T02:00:27;3.38;;;3.10;;
10031;SDS011;5056;44.272;19.892;2023-08-01T02:02:57;4.03;;;3.58;;
10031;SDS011;5056;44.272;19.892;2023-08-01T02:05:25;3.28;;;3.03;;
10031;SDS011;5056;44.272;19.892;2023-08-01T02:07:52;3.60;;;3.22;;
10031;SDS011;5056;44.272;19.892;2023-08-01T02:10:22;4.03;;;3.13;;
10031;SDS011;5056;44.272;19.892;2023-08-01T02:12:49;4.95;;;2.92;;
10031;SDS011;5056;44.272;19.892;2023-08-01T02:15:15;3.38;;;3.08;;
10031;SDS011;5056;44.272;19.892;2023-08-01T02:17:42;2.92;;;2.72;;
10031;SDS011;5056;44.272;19.892;2023-08-01T02:20:10;4.35;;;2.83;;
10031;SDS011;5056;44.272;19.892;2023-08-01T02:22:37;3.65;;;3.35;;
10031;SDS011;5056;44.272;19.892;2023-08-01T02:25:05;4.00;;;3.20;;
10031;SDS011;5056;44.272;19.892;2023-08-01T02:27:33;4.30;;;3.17;;
10031;SDS011;5056;44.272;19.892;2023-08-01T02:30:00;4.38;;;3.50;;
10031;SDS011;5056;44.272;19.892;2023-08-01T02:32:27;4.00;;;3.70;;
10031;SDS011;5056;44.272;19.892;2023-08-01T02:34:54;4.32;;;3.13;;
10031;SDS011;5056;44.272;19.892;2023-08-01T02:37:21;3.40;;;3.10;;
10031;SDS011;5056;44.272;19.892;2023-08-01T02:39:48;3.75;;;3.00;;
10031;SDS011;5056;44.272;19.892;2023-08-01T02:42:15;3.22;;;2.92;;
10031;SDS011;5056;44.272;19.892;2023-08-01T02:44:45;4.90;;;3.20;;
10031;SDS011;5056;44.272;19.892;2023-08-01T02:47:11;3.42;;;3.13;;
10031;SDS011;5056;44.272;19.892;2023-08-01T02:49:39;3.97;;;3.35;;
10031;SDS011;5056;44.272;19.892;2023-08-01T02:52:06;5.57;;;3.15;;
10031;SDS011;5056;44.272;19.892;2023-08-01T02:54:33;3.75;;;3.08;;
10031;SDS011;5056;44.272;19.892;2023-08-01T02:57:00;5.90;;;3.45;;
10031;SDS011;5056;44.272;19.892;2023-08-01T02:59:27;4.07;;;3.28;;
10031;SDS011;5056;44.272;19.892;2023-08-01T03:01:55;5.28;;;3.00;;
10031;SDS011;5056;44.272;19.892;2023-08-01T03:04:22;3.58;;;3.28;;
10031;SDS011;5056;44.272;19.892;2023-08-01T03:06:49;3.35;;;2.80;;
10031;SDS011;5056;44.272;19.892;2023-08-01T03:09:16;3.20;;;3.00;;
10031;SDS011;5056;44.272;19.892;2023-08-01T03:11:43;7.63;;;3.05;;
10031;SDS011;5056;44.272;19.892;2023-08-01T03:14:10;3.40;;;3.10;;
10031;SDS011;5056;44.272;19.892;2023-08-01T03:16:38;3.92;;;2.90;;
10031;SDS011;5056;44.272;19.892;2023-08-01T03:19:07;7.30;;;3.45;;
10031;SDS011;5056;44.272;19.892;2023-08-01T03:21:34;4.82;;;3.10;;
10031;SDS011;5056;44.272;19.892;2023-08-01T03:24:02;5.05;;;3.33;;
10031;SDS011;5056;44.272;19.892;2023-08-01T03:26:31;4.75;;;3.17;;
10031;SDS011;5056;44.272;19.892;2023-08-01T03:28:58;3.88;;;3.58;;
10031;SDS011;5056;44.272;19.892;2023-08-01T03:31:25;4.13;;;3.17;;
10031;SDS011;5056;44.272;19.892;2023-08-01T03:33:52;4.10;;;3.20;;
10031;SDS011;5056;44.272;19.892;2023-08-01T03:36:21;3.92;;;3.22;;
10031;SDS011;5056;44.272;19.892;2023-08-01T03:38:48;4.10;;;3.63;;
10031;SDS011;5056;44.272;19.892;2023-08-01T03:41:15;4.00;;;3.08;;
10031;SDS011;5056;44.272;19.892;2023-08-01T03:43:43;3.63;;;3.35;;
10031;SDS011;5056;44.272;19.892;2023-08-01T03:46:10;3.58;;;3.28;;
10031;SDS011;5056;44.272;19.892;2023-08-01T03:48:37;3.85;;;3.20;;
10031;SDS011;5056;44.272;19.892;2023-08-01T03:51:14;3.63;;;2.92;;
10031;SDS011;5056;44.272;19.892;2023-08-01T03:53:47;4.45;;;2.97;;
10031;SDS011;5056;44.272;19.892;2023-08-01T03:56:14;3.35;;;3.10;;
10031;SDS011;5056;44.272;19.892;2023-08-01T03:58:41;3.80;;;3.50;;
10031;SDS011;5056;44.272;19.892;2023-08-01T04:01:08;3.90;;;3.60;;
10031;SDS011;5056;44.272;19.892;2023-08-01T04:03:36;4.60;;;3.83;;
10031;SDS011;5056;44.272;19.892;2023-08-01T04:06:04;4.57;;;3.70;;
10031;SDS011;5056;44.272;19.892;2023-08-01T04:08:32;4.30;;;3.60;;
10031;SDS011;5056;44.272;19.892;2023-08-01T04:11:02;4.88;;;3.60;;
10031;SDS011;5056;44.272;19.892;2023-08-01T04:13:29;4.30;;;3.55;;
10031;SDS011;5056;44.272;19.892;2023-08-01T04:15:55;3.80;;;3.20;;
10031;SDS011;5056;44.272;19.892;2023-08-01T04:18:22;4.75;;;3.35;;
10031;SDS011;5056;44.272;19.892;2023-08-01T04:20:49;3.78;;;3.40;;
10031;SDS011;5056;44.272;19.892;2023-08-01T04:23:16;5.55;;;3.60;;
10031;SDS011;5056;44.272;19.892;2023-08-01T04:25:44;4.07;;;3.42;;
10031;SDS011;5056;44.272;19.892;2023-08-01T04:28:14;4.22;;;3.50;;
10031;SDS011;5056;44.272;19.892;2023-08-01T04:30:41;4.15;;;3.75;;
10031;SDS011;5056;44.272;19.892;2023-08-01T04:33:07;6.78;;;3.95;;
10031;SDS011;5056;44.272;19.892;2023-08-01T04:35:35;5.78;;;3.90;;
10031;SDS011;5056;44.272;19.892;2023-08-01T04:38:02;4.63;;;4.22;;
10031;SDS011;5056;44.272;19.892;2023-08-01T04:40:29;5.57;;;4.43;;
10031;SDS011;5056;44.272;19.892;2023-08-01T04:42:56;5.15;;;4.65;;
10031;SDS011;5056;44.272;19.892;2023-08-01T04:45:24;6.60;;;4.65;;
10031;SDS011;5056;44.272;19.892;2023-08-01T04:48:02;7.07;;;5.00;;
10031;SDS011;5056;44.272;19.892;2023-08-01T04:50:29;5.15;;;4.75;;
10031;SDS011;5056;44.272;19.892;2023-08-01T04:52:58;6.82;;;5.45;;
10031;SDS011;5056;44.272;19.892;2023-08-01T04:55:25;6.38;;;4.55;;
10031;SDS011;5056;44.272;19.892;2023-08-01T04:57:52;5.15;;;4.05;;
10031;SDS011;5056;44.272;19.892;2023-08-01T05:00:27;4.35;;;4.00;;
10031;SDS011;5056;44.272;19.892;2023-08-01T05:02:54;5.68;;;4.25;;
10031;SDS011;5056;44.272;19.892;2023-08-01T05:05:21;4.53;;;4.10;;
10031;SDS011;5056;44.272;19.892;2023-08-01T05:10:51;6.60;;;3.85;;
10031;SDS011;5056;44.272;19.892;2023-08-01T05:13:18;3.70;;;3.40;;
10031;SDS011;5056;44.272;19.892;2023-08-01T05:15:50;6.70;;;4.10;;
10031;SDS011;5056;44.272;19.892;2023-08-01T05:18:17;5.25;;;4.30;;
10031;SDS011;5056;44.272;19.892;2023-08-01T05:20:44;4.45;;;3.90;;
10031;SDS011;5056;44.272;19.892;2023-08-01T05:23:11;5.05;;;3.78;;
10031;SDS011;5056;44.272;19.892;2023-08-01T05:25:38;4.18;;;3.67;;
10031;SDS011;5056;44.272;19.892;2023-08-01T05:31:16;4.38;;;3.47;;
10031;SDS011;5056;44.272;19.892;2023-08-01T05:33:43;4.05;;;3.50;;
10031;SDS011;5056;44.272;19.892;2023-08-01T05:36:11;5.45;;;3.90;;
10031;SDS011;5056;44.272;19.892;2023-08-01T05:38:38;8.18;;;5.18;;
10031;SDS011;5056;44.272;19.892;2023-08-01T05:41:06;7.30;;;4.78;;
10031;SDS011;5056;44.272;19.892;2023-08-01T05:43:33;5.30;;;4.80;;
10031;SDS011;5056;44.272;19.892;2023-08-01T05:46:03;6.45;;;4.40;;
10031;SDS011;5056;44.272;19.892;2023-08-01T05:48:31;14.05;;;6.22;;
10031;SDS011;5056;44.272;19.892;2023-08-01T05:50:59;11.82;;;5.53;;
10031;SDS011;5056;44.272;19.892;2023-08-01T05:53:26;15.50;;;5.95;;
10031;SDS011;5056;44.272;19.892;2023-08-01T05:55:53;8.55;;;5.05;;
10031;SDS011;5056;44.272;19.892;2023-08-01T05:58:20;9.80;;;6.93;;
10031;SDS011;5056;44.272;19.892;2023-08-01T06:00:48;11.23;;;6.97;;
10031;SDS011;5056;44.272;19.892;2023-08-01T06:03:15;9.68;;;6.35;;
10031;SDS011;5056;44.272;19.892;2023-08-01T06:05:44;10.23;;;6.40;;
10031;SDS011;5056;44.272;19.892;2023-08-01T06:08:17;12.57;;;5.97;;
10031;SDS011;5056;44.272;19.892;2023-08-01T06:10:44;9.25;;;5.70;;
10031;SDS011;5056;44.272;19.892;2023-08-01T06:13:20;9.07;;;5.35;;
10031;SDS011;5056;44.272;19.892;2023-08-01T06:15:47;10.63;;;4.93;;
10031;SDS011;5056;44.272;19.892;2023-08-01T06:18:14;8.80;;;4.95;;
10031;SDS011;5056;44.272;19.892;2023-08-01T06:23:16;10.98;;;6.35;;
10031;SDS011;5056;44.272;19.892;2023-08-01T06:25:43;11.27;;;5.85;;
10031;SDS011;5056;44.272;19.892;2023-08-01T06:28:11;17.65;;;6.07;;
10031;SDS011;5056;44.272;19.892;2023-08-01T06:30:38;15.05;;;5.10;;
10031;SDS011;5056;44.272;19.892;2023-08-01T06:33:05;11.05;;;5.38;;
10031;SDS011;5056;44.272;19.892;2023-08-01T06:35:32;6.22;;;4.97;;
10031;SDS011;5056;44.272;19.892;2023-08-01T06:38:03;6.72;;;4.47;;
10031;SDS011;5056;44.272;19.892;2023-08-01T06:40:30;8.80;;;4.88;;
10031;SDS011;5056;44.272;19.892;2023-08-01T06:43:00;8.55;;;5.22;;
10031;SDS011;5056;44.272;19.892;2023-08-01T06:45:28;7.15;;;4.90;;
10031;SDS011;5056;44.272;19.892;2023-08-01T06:47:55;15.15;;;5.72;;
10031;SDS011;5056;44.272;19.892;2023-08-01T06:50:23;15.98;;;5.95;;
10031;SDS011;5056;44.272;19.892;2023-08-01T06:52:50;11.05;;;5.88;;
10031;SDS011;5056;44.272;19.892;2023-08-01T06:55:19;7.18;;;5.78;;
10031;SDS011;5056;44.272;19.892;2023-08-01T06:57:46;9.18;;;5.65;;
10031;SDS011;5056;44.272;19.892;2023-08-01T07:00:13;10.57;;;5.03;;
10031;SDS011;5056;44.272;19.892;2023-08-01T07:02:41;5.90;;;4.35;;
10031;SDS011;5056;44.272;19.892;2023-08-01T07:05:08;4.72;;;4.15;;
10031;SDS011;5056;44.272;19.892;2023-08-01T07:07:35;7.63;;;4.20;;
10031;SDS011;5056;44.272;19.892;2023-08-01T07:10:04;5.82;;;3.55;;
10031;SDS011;5056;44.272;19.892;2023-08-01T07:12:34;6.70;;;3.95;;
10031;SDS011;5056;44.272;19.892;2023-08-01T07:15:02;6.05;;;3.85;;
10031;SDS011;5056;44.272;19.892;2023-08-01T07:17:29;8.27;;;3.97;;
10031;SDS011;5056;44.272;19.892;2023-08-01T07:19:56;9.45;;;4.50;;
10031;SDS011;5056;44.272;19.892;2023-08-01T07:22:24;6.78;;;4.43;;
10031;SDS011;5056;44.272;19.892;2023-08-01T07:24:52;6.38;;;3.83;;
10031;SDS011;5056;44.272;19.892;2023-08-01T07:27:20;4.00;;;3.70;;
10031;SDS011;5056;44.272;19.892;2023-08-01T07:29:49;5.93;;;4.47;;
10031;SDS011;5056;44.272;19.892;2023-08-01T07:32:16;5.20;;;3.75;;
10031;SDS011;5056;44.272;19.892;2023-08-01T07:34:48;4.80;;;3.70;;
10031;SDS011;5056;44.272;19.892;2023-08-01T07:37:15;5.55;;;4.03;;
10031;SDS011;5056;44.272;19.892;2023-08-01T07:39:43;5.65;;;4.03;;
10031;SDS011;5056;44.272;19.892;2023-08-01T07:42:10;4.50;;;3.65;;
10031;SDS011;5056;44.272;19.892;2023-08-01T07:44:38;5.47;;;4.30;;
10031;SDS011;5056;44.272;19.892;2023-08-01T07:47:06;5.57;;;3.60;;
10031;SDS011;5056;44.272;19.892;2023-08-01T07:49:33;4.75;;;4.20;;
10031;SDS011;5056;44.272;19.892;2023-08-01T07:55:29;5.68;;;3.92;;
10031;SDS011;5056;44.272;19.892;2023-08-01T07:58:01;4.13;;;3.78;;
10031;SDS011;5056;44.272;19.892;2023-08-01T08:00:28;4.20;;;3.85;;
10031;SDS011;5056;44.272;19.892;2023-08-01T08:02:57;6.95;;;3.67;;
10031;SDS011;5056;44.272;19.892;2023-08-01T08:05:24;9.95;;;4.15;;
10031;SDS011;5056;44.272;19.892;2023-08-01T08:07:51;5.13;;;3.90;;
10031;SDS011;5056;44.272;19.892;2023-08-01T08:10:19;8.88;;;3.88;;
10031;SDS011;5056;44.272;19.892;2023-08-01T08:12:46;4.78;;;3.58;;
10031;SDS011;5056;44.272;19.892;2023-08-01T08:15:12;5.15;;;3.60;;
10031;SDS011;5056;44.272;19.892;2023-08-01T08:17:41;4.43;;;3.55;;
10031;SDS011;5056;44.272;19.892;2023-08-01T08:20:11;3.83;;;3.33;;
10031;SDS011;5056;44.272;19.892;2023-08-01T08:22:38;3.53;;;3.22;;
10031;SDS011;5056;44.272;19.892;2023-08-01T08:25:05;4.60;;;3.05;;
10031;SDS011;5056;44.272;19.892;2023-08-01T08:27:32;8.68;;;3.42;;
10031;SDS011;5056;44.272;19.892;2023-08-01T08:30:00;4.07;;;3.20;;
10031;SDS011;5056;44.272;19.892;2023-08-01T08:32:27;3.05;;;2.85;;
10031;SDS011;5056;44.272;19.892;2023-08-01T08:34:54;4.13;;;2.85;;
10031;SDS011;5056;44.272;19.892;2023-08-01T08:37:23;4.65;;;3.30;;
10031;SDS011;5056;44.272;19.892;2023-08-01T08:39:49;3.92;;;3.03;;
10031;SDS011;5056;44.272;19.892;2023-08-01T08:42:17;5.22;;;3.47;;
10031;SDS011;5056;44.272;19.892;2023-08-01T08:44:45;4.72;;;3.22;;
10031;SDS011;5056;44.272;19.892;2023-08-01T08:47:14;3.88;;;3.47;;
10031;SDS011;5056;44.272;19.892;2023-08-01T08:49:44;5.75;;;3.65;;
10031;SDS011;5056;44.272;19.892;2023-08-01T08:52:11;3.88;;;3.42;;
10031;SDS011;5056;44.272;19.892;2023-08-01T08:54:40;4.75;;;3.35;;
10031;SDS011;5056;44.272;19.892;2023-08-01T08:57:07;7.03;;;3.30;;
10031;SDS011;5056;44.272;19.892;2023-08-01T08:59:35;4.20;;;3.35;;
10031;SDS011;5056;44.272;19.892;2023-08-01T09:02:02;4.82;;;3.33;;
10031;SDS011;5056;44.272;19.892;2023-08-01T09:04:29;4.28;;;3.45;;
10031;SDS011;5056;44.272;19.892;2023-08-01T09:06:58;3.65;;;3.25;;
10031;SDS011;5056;44.272;19.892;2023-08-01T09:09:28;2.78;;;2.63;;
10031;SDS011;5056;44.272;19.892;2023-08-01T09:11:57;2.85;;;2.55;;
10031;SDS011;5056;44.272;19.892;2023-08-01T09:14:25;3.13;;;2.85;;
10031;SDS011;5056;44.272;19.892;2023-08-01T09:16:52;3.10;;;2.80;;
10031;SDS011;5056;44.272;19.892;2023-08-01T09:19:21;2.83;;;2.63;;
10031;SDS011;5056;44.272;19.892;2023-08-01T09:21:50;4.32;;;2.83;;
10031;SDS011;5056;44.272;19.892;2023-08-01T09:24:18;2.80;;;2.60;;
10031;SDS011;5056;44.272;19.892;2023-08-01T09:26:46;3.35;;;3.08;;
10031;SDS011;5056;44.272;19.892;2023-08-01T09:29:17;3.38;;;3.00;;
10031;SDS011;5056;44.272;19.892;2023-08-01T09:31:44;3.10;;;2.90;;
10031;SDS011;5056;44.272;19.892;2023-08-01T09:34:19;3.00;;;2.80;;
10031;SDS011;5056;44.272;19.892;2023-08-01T09:36:47;3.20;;;3.00;;
10031;SDS011;5056;44.272;19.892;2023-08-01T09:39:15;4.28;;;2.80;;
10031;SDS011;5056;44.272;19.892;2023-08-01T09:41:43;3.05;;;2.75;;
10031;SDS011;5056;44.272;19.892;2023-08-01T09:44:10;2.80;;;2.60;;
10031;SDS011;5056;44.272;19.892;2023-08-01T09:46:39;2.80;;;2.60;;
10031;SDS011;5056;44.272;19.892;2023-08-01T09:49:07;2.85;;;2.65;;
10031;SDS011;5056;44.272;19.892;2023-08-01T09:51:45;2.92;;;2.72;;
10031;SDS011;5056;44.272;19.892;2023-08-01T09:54:15;3.33;;;3.03;;
10031;SDS011;5056;44.272;19.892;2023-08-01T09:56:43;3.75;;;3.20;;
10031;SDS011;5056;44.272;19.892;2023-08-01T09:59:11;2.72;;;2.63;;
10031;SDS011;5056;44.272;19.892;2023-08-01T10:01:43;2.83;;;2.63;;
10031;SDS011;5056;44.272;19.892;2023-08-01T10:04:10;3.42;;;2.97;;
10031;SDS011;5056;44.272;19.892;2023-08-01T10:06:38;2.75;;;2.55;;
10031;SDS011;5056;44.272;19.892;2023-08-01T10:09:10;2.45;;;2.22;;
10031;SDS011;5056;44.272;19.892;2023-08-01T10:11:38;3.22;;;2.85;;
10031;SDS011;5056;44.272;19.892;2023-08-01T10:14:07;2.70;;;2.53;;
10031;SDS011;5056;44.272;19.892;2023-08-01T10:16:34;3.67;;;2.63;;
10031;SDS011;5056;44.272;19.892;2023-08-01T10:19:06;2.70;;;2.60;;
10031;SDS011;5056;44.272;19.892;2023-08-01T10:21:33;2.60;;;2.40;;
10031;SDS011;5056;44.272;19.892;2023-08-01T10:24:00;3.00;;;2.80;;
10031;SDS011;5056;44.272;19.892;2023-08-01T10:26:28;3.17;;;2.97;;
10031;SDS011;5056;44.272;19.892;2023-08-01T10:28:56;2.70;;;2.50;;
10031;SDS011;5056;44.272;19.892;2023-08-01T10:31:25;2.60;;;2.40;;
10031;SDS011;5056;44.272;19.892;2023-08-01T10:33:52;3.08;;;2.88;;
10031;SDS011;5056;44.272;19.892;2023-08-01T10:36:32;2.58;;;2.38;;
10031;SDS011;5056;44.272;19.892;2023-08-01T10:39:00;2.47;;;2.28;;
10031;SDS011;5056;44.272;19.892;2023-08-01T10:41:29;3.00;;;2.80;;
10031;SDS011;5056;44.272;19.892;2023-08-01T10:44:04;2.90;;;2.70;;
10031;SDS011;5056;44.272;19.892;2023-08-01T10:46:46;3.28;;;2.95;;
10031;SDS011;5056;44.272;19.892;2023-08-01T10:49:14;2.17;;;2.08;;
10031;SDS011;5056;44.272;19.892;2023-08-01T10:51:43;2.60;;;2.50;;
10031;SDS011;5056;44.272;19.892;2023-08-01T10:54:18;3.03;;;2.83;;
10031;SDS011;5056;44.272;19.892;2023-08-01T10:56:47;2.72;;;2.53;;
10031;SDS011;5056;44.272;19.892;2023-08-01T10:59:15;2.67;;;2.47;;
10031;SDS011;5056;44.272;19.892;2023-08-01T11:01:44;3.30;;;2.80;;
10031;SDS011;5056;44.272;19.892;2023-08-01T11:04:14;2.83;;;2.65;;
10031;SDS011;5056;44.272;19.892;2023-08-01T11:06:45;2.47;;;2.33;;
10031;SDS011;5056;44.272;19.892;2023-08-01T11:09:18;17.27;;;6.57;;
10031;SDS011;5056;44.272;19.892;2023-08-01T11:11:47;3.28;;;3.00;;
10031;SDS011;5056;44.272;19.892;2023-08-01T11:14:16;3.05;;;2.78;;
10031;SDS011;5056;44.272;19.892;2023-08-01T11:16:44;2.90;;;2.70;;
10031;SDS011;5056;44.272;19.892;2023-08-01T11:19:17;2.88;;;2.67;;
10031;SDS011;5056;44.272;19.892;2023-08-01T11:21:49;14.75;;;3.58;;
10031;SDS011;5056;44.272;19.892;2023-08-01T11:24:17;2.53;;;2.42;;
10031;SDS011;5056;44.272;19.892;2023-08-01T11:26:44;6.07;;;2.63;;
10031;SDS011;5056;44.272;19.892;2023-08-01T11:29:14;4.72;;;3.10;;
10031;SDS011;5056;44.272;19.892;2023-08-01T11:31:41;3.03;;;2.83;;
10031;SDS011;5056;44.272;19.892;2023-08-01T11:34:20;2.47;;;2.28;;
10031;SDS011;5056;44.272;19.892;2023-08-01T11:36:49;2.80;;;2.55;;
10031;SDS011;5056;44.272;19.892;2023-08-01T11:39:16;2.72;;;2.53;;
10031;SDS011;5056;44.272;19.892;2023-08-01T11:41:47;3.13;;;2.92;;
10031;SDS011;5056;44.272;19.892;2023-08-01T11:44:14;3.20;;;3.00;;
10031;SDS011;5056;44.272;19.892;2023-08-01T11:46:41;2.90;;;2.70;;
10031;SDS011;5056;44.272;19.892;2023-08-01T11:49:09;2.83;;;2.63;;
10031;SDS011;5056;44.272;19.892;2023-08-01T11:51:41;3.60;;;2.78;;
10031;SDS011;5056;44.272;19.892;2023-08-01T11:54:13;3.10;;;2.90;;
10031;SDS011;5056;44.272;19.892;2023-08-01T11:56:40;2.90;;;2.80;;
10031;SDS011;5056;44.272;19.892;2023-08-01T11:59:08;2.92;;;2.80;;
10031;SDS011;5056;44.272;19.892;2023-08-01T12:01:37;3.35;;;3.05;;
10031;SDS011;5056;44.272;19.892;2023-08-01T12:04:06;2.90;;;2.70;;
10031;SDS011;5056;44.272;19.892;2023-08-01T12:06:33;2.90;;;2.70;;
10031;SDS011;5056;44.272;19.892;2023-08-01T12:09:12;2.83;;;2.63;;
10031;SDS011;5056;44.272;19.892;2023-08-01T12:11:42;3.35;;;3.00;;
10031;SDS011;5056;44.272;19.892;2023-08-01T12:14:12;3.25;;;2.95;;
10031;SDS011;5056;44.272;19.892;2023-08-01T12:16:40;2.60;;;2.40;;
10031;SDS011;5056;44.272;19.892;2023-08-01T12:19:09;2.53;;;2.42;;
10031;SDS011;5056;44.272;19.892;2023-08-01T12:21:37;2.80;;;2.70;;
10031;SDS011;5056;44.272;19.892;2023-08-01T12:24:04;2.90;;;2.67;;
10031;SDS011;5056;44.272;19.892;2023-08-01T12:26:33;2.55;;;2.40;;
10031;SDS011;5056;44.272;19.892;2023-08-01T12:29:01;2.55;;;2.35;;
10031;SDS011;5056;44.272;19.892;2023-08-01T12:31:31;3.05;;;2.85;;
10031;SDS011;5056;44.272;19.892;2023-08-01T12:33:58;3.42;;;2.60;;
10031;SDS011;5056;44.272;19.892;2023-08-01T12:36:26;4.50;;;3.05;;
10031;SDS011;5056;44.272;19.892;2023-08-01T12:38:55;2.53;;;2.42;;
10031;SDS011;5056;44.272;19.892;2023-08-01T12:41:22;2.72;;;2.53;;
10031;SDS011;5056;44.272;19.892;2023-08-01T12:43:51;2.60;;;2.42;;
10031;SDS011;5056;44.272;19.892;2023-08-01T12:46:18;2.60;;;2.50;;
10031;SDS011;5056;44.272;19.892;2023-08-01T12:51:15;3.15;;;2.95;;
10031;SDS011;5056;44.272;19.892;2023-08-01T12:56:40;3.00;;;2.80;;
10031;SDS011;5056;44.272;19.892;2023-08-01T12:59:08;2.83;;;2.63;;
10031;SDS011;5056;44.272;19.892;2023-08-01T13:01:35;3.38;;;3.17;;
10031;SDS011;5056;44.272;19.892;2023-08-01T13:04:03;3.30;;;2.97;;
10031;SDS011;5056;44.272;19.892;2023-08-01T13:06:31;3.35;;;2.65;;
10031;SDS011;5056;44.272;19.892;2023-08-01T13:08:58;2.63;;;2.42;;
10031;SDS011;5056;44.272;19.892;2023-08-01T13:11:25;3.03;;;2.83;;
10031;SDS011;5056;44.272;19.892;2023-08-01T13:13:52;4.70;;;2.90;;
10031;SDS011;5056;44.272;19.892;2023-08-01T13:16:25;3.28;;;3.05;;
10031;SDS011;5056;44.272;19.892;2023-08-01T13:18:51;3.88;;;2.95;;
10031;SDS011;5056;44.272;19.892;2023-08-01T13:21:21;3.13;;;2.80;;
10031;SDS011;5056;44.272;19.892;2023-08-01T13:23:49;3.70;;;3.15;;
10031;SDS011;5056;44.272;19.892;2023-08-01T13:26:15;4.53;;;3.53;;
10031;SDS011;5056;44.272;19.892;2023-08-01T13:28:44;3.30;;;2.90;;
10031;SDS011;5056;44.272;19.892;2023-08-01T13:31:12;3.22;;;2.97;;
10031;SDS011;5056;44.272;19.892;2023-08-01T13:33:41;3.30;;;3.10;;
10031;SDS011;5056;44.272;19.892;2023-08-01T13:36:09;3.90;;;3.58;;
10031;SDS011;5056;44.272;19.892;2023-08-01T13:38:37;3.72;;;3.00;;
10031;SDS011;5056;44.272;19.892;2023-08-01T13:41:05;3.17;;;2.97;;
10031;SDS011;5056;44.272;19.892;2023-08-01T13:43:33;3.10;;;2.85;;
10031;SDS011;5056;44.272;19.892;2023-08-01T13:46:00;3.08;;;2.90;;
10031;SDS011;5056;44.272;19.892;2023-08-01T13:48:27;3.78;;;3.05;;
10031;SDS011;5056;44.272;19.892;2023-08-01T13:50:59;3.22;;;3.03;;
10031;SDS011;5056;44.272;19.892;2023-08-01T13:53:26;3.83;;;3.15;;
10031;SDS011;5056;44.272;19.892;2023-08-01T13:55:54;3.10;;;3.00;;
10031;SDS011;5056;44.272;19.892;2023-08-01T13:58:21;3.30;;;3.00;;
10031;SDS011;5056;44.272;19.892;2023-08-01T14:00:49;5.20;;;3.70;;
10031;SDS011;5056;44.272;19.892;2023-08-01T14:03:25;2.92;;;2.72;;
10031;SDS011;5056;44.272;19.892;2023-08-01T14:05:52;2.80;;;2.60;;
10031;SDS011;5056;44.272;19.892;2023-08-01T14:08:23;3.17;;;2.85;;
10031;SDS011;5056;44.272;19.892;2023-08-01T14:10:52;3.38;;;3.17;;
10031;SDS011;5056;44.272;19.892;2023-08-01T14:13:19;4.05;;;3.28;;
10031;SDS011;5056;44.272;19.892;2023-08-01T14:15:45;3.38;;;3.08;;
10031;SDS011;5056;44.272;19.892;2023-08-01T14:18:12;3.47;;;3.00;;
10031;SDS011;5056;44.272;19.892;2023-08-01T14:20:39;3.30;;;3.00;;
10031;SDS011;5056;44.272;19.892;2023-08-01T14:23:09;3.25;;;3.00;;
10031;SDS011;5056;44.272;19.892;2023-08-01T14:25:39;3.40;;;3.10;;
10031;SDS011;5056;44.272;19.892;2023-08-01T14:28:06;6.40;;;3.10;;
10031;SDS011;5056;44.272;19.892;2023-08-01T14:30:34;3.03;;;2.75;;
10031;SDS011;5056;44.272;19.892;2023-08-01T14:33:04;2.63;;;2.45;;
10031;SDS011;5056;44.272;19.892;2023-08-01T14:35:31;3.50;;;2.53;;
10031;SDS011;5056;44.272;19.892;2023-08-01T14:37:59;3.08;;;2.88;;
10031;SDS011;5056;44.272;19.892;2023-08-01T14:40:27;3.20;;;2.90;;
10031;SDS011;5056;44.272;19.892;2023-08-01T14:42:57;3.38;;;3.17;;
10031;SDS011;5056;44.272;19.892;2023-08-01T14:45:24;3.35;;;3.15;;
10031;SDS011;5056;44.272;19.892;2023-08-01T14:47:54;3.40;;;3.10;;
10031;SDS011;5056;44.272;19.892;2023-08-01T14:50:20;2.97;;;2.78;;
10031;SDS011;5056;44.272;19.892;2023-08-01T14:52:47;4.10;;;3.25;;
10031;SDS011;5056;44.272;19.892;2023-08-01T14:55:14;3.50;;;3.20;;
10031;SDS011;5056;44.272;19.892;2023-08-01T14:57:41;6.15;;;3.28;;
10031;SDS011;5056;44.272;19.892;2023-08-01T15:00:11;3.97;;;3.67;;
10031;SDS011;5056;44.272;19.892;2023-08-01T15:02:38;3.53;;;3.22;;
10031;SDS011;5056;44.272;19.892;2023-08-01T15:05:06;4.60;;;4.03;;
10031;SDS011;5056;44.272;19.892;2023-08-01T15:07:33;4.35;;;3.95;;
10031;SDS011;5056;44.272;19.892;2023-08-01T15:10:00;3.95;;;3.65;;
10031;SDS011;5056;44.272;19.892;2023-08-01T15:12:27;3.85;;;3.55;;
10031;SDS011;5056;44.272;19.892;2023-08-01T15:14:55;3.70;;;3.50;;